createdAt,value
2019-04-20T00:00:55.060Z,101838.62
2019-04-20T00:03:33.853Z,101836.40
2019-04-20T00:06:01.468Z,101841.78
2019-04-20T00:08:37.539Z,101843.03
2019-04-20T00:11:15.650Z,101844.16
2019-04-20T00:13:51.766Z,101842.03
2019-04-20T00:16:14.783Z,101845.22
2019-04-20T00:18:52.980Z,101840.22
2019-04-20T00:21:42.708Z,101838.84
2019-04-20T00:24:22.929Z,101845.63
2019-04-20T00:29:41.835Z,101844.78
2019-04-20T00:32:06.086Z,101837.09
2019-04-20T00:34:33.317Z,101841.23
2019-04-20T00:37:02.196Z,101838.61
2019-04-20T00:39:34.053Z,101836.31
2019-04-20T00:42:09.629Z,101834.07
2019-04-20T00:44:42.308Z,101833.68
2019-04-20T00:47:25.368Z,101835.91
2019-04-20T00:49:57.845Z,101831.92
2019-04-20T00:52:31.056Z,101833.77
2019-04-20T00:54:51.501Z,101830.08
2019-04-20T00:57:35.882Z,101831.98
2019-04-20T01:00:16.959Z,101825.26
2019-04-20T01:02:41.962Z,101827.95
2019-04-20T01:05:20.313Z,101825.26
2019-04-20T01:07:56.592Z,101828.23
2019-04-20T01:10:30.311Z,101825.63
2019-04-20T01:13:04.179Z,101825.23
2019-04-20T01:15:38.618Z,101823.34
2019-04-20T01:18:03.481Z,101823.34
2019-04-20T01:20:34.805Z,101824.45
2019-04-20T01:23:10.132Z,101829.21
2019-04-20T01:25:43.338Z,101821.08
2019-04-20T01:28:27.504Z,101819.55
2019-04-20T01:31:00.171Z,101816.01
2019-04-20T01:33:34.363Z,101822.86
2019-04-20T01:36:09.097Z,101821.12
2019-04-20T01:38:42.800Z,101823.85
2019-04-20T01:40:59.065Z,101819.92
2019-04-20T01:43:31.195Z,101816.56
2019-04-20T01:46:09.178Z,101819.89
2019-04-20T01:48:39.683Z,101815.66
2019-04-20T01:51:18.831Z,101815.59
2019-04-20T01:54:02.151Z,101815.86
2019-04-20T01:56:31.646Z,101812.72
2019-04-20T01:59:10.722Z,101817.14
2019-04-20T02:01:45.949Z,101819.54
2019-04-20T02:04:28.616Z,101821.14
2019-04-20T02:06:59.975Z,101824.69
2019-04-20T02:09:31.147Z,101817.02
2019-04-20T02:12:08.461Z,101820.72
2019-04-20T02:14:42.691Z,101822.52
2019-04-20T02:17:18.053Z,101811.55
2019-04-20T02:19:59.838Z,101814.49
2019-04-20T02:22:33.017Z,101814.30
2019-04-20T02:24:47.117Z,101812.30
2019-04-20T02:27:19.744Z,101810.56
2019-04-20T02:30:22.073Z,101814.62
2019-04-20T02:33:10.061Z,101818.92
2019-04-20T02:35:42.551Z,101810.82
2019-04-20T02:38:36.141Z,101818.39
2019-04-20T02:40:52.635Z,101819.25
2019-04-20T02:43:33.367Z,101813.94
2019-04-20T02:48:21.682Z,101815.34
2019-04-20T02:50:59.714Z,101818.46
2019-04-20T02:56:04.723Z,101823.99
2019-04-20T02:58:42.229Z,101821.68
2019-04-20T03:01:05.070Z,101822.05
2019-04-20T03:03:22.786Z,101824.07
2019-04-20T03:06:04.623Z,101821.22
2019-04-20T03:08:40.584Z,101824.58
2019-04-20T03:11:14.659Z,101826.03
2019-04-20T03:13:41.383Z,101832.28
2019-04-20T03:16:16.517Z,101825.26
2019-04-20T03:18:51.220Z,101831.05
2019-04-20T03:21:24.837Z,101836.81
2019-04-20T03:24:06.786Z,101832.59
2019-04-20T03:26:42.664Z,101840.45
2019-04-20T03:29:13.082Z,101833.34
2019-04-20T03:37:21.894Z,101850.69
2019-04-20T03:39:40.774Z,101860.14
2019-04-20T03:41:59.326Z,101855.97
2019-04-20T03:44:34.185Z,101866.63
2019-04-20T03:47:08.869Z,101857.27
2019-04-20T03:49:59.531Z,101867.73
2019-04-20T03:52:32.836Z,101867.73
2019-04-20T03:55:14.873Z,101863.86
2019-04-20T03:57:51.244Z,101869.40
2019-04-20T04:00:21.969Z,101869.70
2019-04-20T04:03:12.380Z,101865.90
2019-04-20T04:05:31.293Z,101865.64
2019-04-20T04:08:00.115Z,101862.42
2019-04-20T04:10:33.484Z,101865.83
2019-04-20T04:13:15.100Z,101865.73
2019-04-20T04:15:52.031Z,101869.74
2019-04-20T04:18:28.121Z,101867.00
2019-04-20T04:21:03.847Z,101874.41
2019-04-20T04:23:51.033Z,101874.41
2019-04-20T04:26:26.438Z,101867.08
2019-04-20T04:29:00.650Z,101863.81
2019-04-20T04:31:33.275Z,101851.70
2019-04-20T04:34:04.908Z,101870.41
2019-04-20T04:36:38.720Z,101865.40
2019-04-20T04:39:15.223Z,101863.47
2019-04-20T04:41:39.801Z,101858.61
2019-04-20T04:44:17.439Z,101860.42
2019-04-20T04:46:33.877Z,101862.01
2019-04-20T04:49:14.708Z,101859.91
2019-04-20T04:51:46.804Z,101866.48
2019-04-20T04:54:22.193Z,101875.97
2019-04-20T05:00:26.567Z,101864.58
2019-04-20T05:03:02.002Z,101858.86
2019-04-20T05:05:49.149Z,101858.86
2019-04-20T05:08:12.988Z,101872.30
2019-04-20T05:10:37.368Z,101873.39
2019-04-20T05:13:09.156Z,101876.97
2019-04-20T05:15:57.065Z,101860.58
2019-04-20T05:18:41.523Z,101860.58
2019-04-20T05:21:13.107Z,101863.56
2019-04-20T05:23:35.163Z,101873.13
2019-04-20T05:26:27.989Z,101863.56
2019-04-20T05:28:56.901Z,101869.36
2019-04-20T05:31:23.223Z,101861.50
2019-04-20T05:34:14.393Z,101860.56
2019-04-20T05:36:46.243Z,101869.06
2019-04-20T05:39:29.554Z,101864.36
2019-04-20T05:41:45.766Z,101864.47
2019-04-20T05:44:22.161Z,101863.14
2019-04-20T05:47:00.941Z,101872.62
2019-04-20T05:49:29.740Z,101860.83
2019-04-20T05:52:20.210Z,101858.06
2019-04-20T05:54:39.080Z,101858.55
2019-04-20T05:57:14.956Z,101854.05
2019-04-20T05:59:51.812Z,101856.71
2019-04-20T06:02:17.015Z,101850.35
2019-04-20T06:04:59.642Z,101834.34
2019-04-20T06:07:26.803Z,101823.66
2019-04-20T06:09:59.846Z,101824.48
2019-04-20T06:12:31.988Z,101824.24
2019-04-20T06:15:04.085Z,101839.32
2019-04-20T06:17:58.367Z,101843.84
2019-04-20T06:20:35.834Z,101822.23
2019-04-20T06:23:33.288Z,101839.43
2019-04-20T06:26:33.605Z,101831.11
2019-04-20T06:28:45.090Z,101829.30
2019-04-20T06:31:28.470Z,101827.59
2019-04-20T06:36:53.538Z,101808.02
2019-04-20T06:39:30.851Z,101836.23
2019-04-20T06:44:46.010Z,101830.18
2019-04-20T06:47:16.214Z,101838.47
2019-04-20T06:49:56.685Z,101823.66
2019-04-20T06:55:00.322Z,101824.83
2019-04-20T06:57:37.195Z,101819.54
2019-04-20T07:00:10.190Z,101810.03
2019-04-20T07:02:41.390Z,101823.06
2019-04-20T07:05:13.132Z,101836.75
2019-04-20T07:07:47.490Z,101818.75
2019-04-20T07:10:25.258Z,101818.79
2019-04-20T07:12:55.389Z,101810.75
2019-04-20T07:15:29.184Z,101829.52
2019-04-20T07:18:09.236Z,101838.41
2019-04-20T07:20:48.540Z,101829.41
2019-04-20T07:23:23.846Z,101829.14
2019-04-20T07:25:52.750Z,101824.34
2019-04-20T07:28:27.789Z,101822.24
2019-04-20T07:30:55.266Z,101825.06
2019-04-20T07:33:33.443Z,101820.88
2019-04-20T07:35:55.962Z,101829.03
2019-04-20T07:41:19.423Z,101815.70
2019-04-20T07:43:41.992Z,101803.61
2019-04-20T07:46:23.134Z,101813.49
2019-04-20T07:48:48.015Z,101795.08
2019-04-20T07:51:09.171Z,101822.59
2019-04-20T07:53:46.364Z,101790.72
2019-04-20T07:56:30.422Z,101801.86
2019-04-20T07:58:49.287Z,101814.47
2019-04-20T08:01:53.067Z,101802.86
2019-04-20T08:04:24.465Z,101802.51
2019-04-20T08:06:49.872Z,101803.83
2019-04-20T08:09:25.772Z,101778.27
2019-04-20T08:12:11.748Z,101778.77
2019-04-20T08:14:48.085Z,101776.37
2019-04-20T08:17:26.826Z,101782.72
2019-04-20T08:19:47.204Z,101794.61
2019-04-20T08:22:27.035Z,101779.06
2019-04-20T08:24:48.653Z,101783.30
2019-04-20T08:27:13.173Z,101767.39
2019-04-20T08:29:59.012Z,101774.91
2019-04-20T08:32:38.946Z,101751.41
2019-04-20T08:35:23.161Z,101765.42
2019-04-20T08:38:05.736Z,101761.68
2019-04-20T08:40:20.821Z,101756.44
2019-04-20T08:43:07.385Z,101768.05
2019-04-20T08:45:34.903Z,101764.99
2019-04-20T08:48:11.019Z,101753.31
2019-04-20T08:50:34.126Z,101748.78
2019-04-20T08:53:20.777Z,101765.50
2019-04-20T08:55:40.112Z,101757.45
2019-04-20T08:57:56.558Z,101742.14
2019-04-20T09:00:35.952Z,101740.50
2019-04-20T09:03:13.167Z,101747.06
2019-04-20T09:05:51.210Z,101743.22
2019-04-20T09:08:17.873Z,101743.14
2019-04-20T09:11:02.708Z,101736.11
